Time;durP1;ratioP1;P1;durP2;ratioP2;P2;SDS_P1;SDS_P2;PMS_P1;PMS_P2;Temp;Humidity;BMP_temperature;BMP_pressure;BME280_temperature;BME280_humidity;BME280_pressure;Samples;Min_cycle;Max_cycle;Signal;HPM_P1;HPM_P2
2022/03/12 00:01:26;;;;;;;17.30;8.50;;;1.30;34.50;;;;;;5238416;28;20178;-48
2022/03/12 00:03:58;;;;;;;15.43;7.63;;;1.30;34.50;;;;;;5230250;28;20433;-48
2022/03/12 00:06:28;;;;;;;17.03;8.07;;;1.20;35.10;;;;;;5238892;28;20195;-48
2022/03/12 00:08:59;;;;;;;18.13;8.20;;;1.20;34.70;;;;;;5233904;28;20501;-50
2022/03/12 00:11:50;;;;;;;22.30;9.13;;;1.20;35.00;;;;;;5239002;28;20199;-49
2022/03/12 00:14:22;;;;;;;17.60;8.37;;;1.10;35.00;;;;;;5228733;28;20207;-48
2022/03/12 00:16:53;;;;;;;24.53;8.97;;;1.10;34.90;;;;;;5227186;28;20429;-48
2022/03/12 00:19:23;;;;;;;20.83;8.10;;;1.10;35.20;;;;;;5224815;28;20463;-50
2022/03/12 00:21:55;;;;;;;17.37;8.77;;;1.10;35.30;;;;;;5239367;28;20187;-47
2022/03/12 00:24:26;;;;;;;22.07;8.63;;;1.00;35.40;;;;;;5242134;28;20174;-48
2022/03/12 00:27:00;;;;;;;16.17;9.07;;;1.10;35.50;;;;;;5237224;28;20461;-50
2022/03/12 00:29:32;;;;;;;11.10;7.37;;;1.00;35.60;;;;;;5229026;28;20445;-48
2022/03/12 00:32:06;;;;;;;18.30;9.00;;;1.00;35.40;;;;;;5240029;28;20508;-49
2022/03/12 00:34:36;;;;;;;25.10;9.80;;;0.90;35.10;;;;;;5232359;28;20438;-47
2022/03/12 00:37:07;;;;;;;19.07;8.17;;;0.90;35.10;;;;;;5237323;28;20441;-49
2022/03/12 00:39:38;;;;;;;17.47;9.20;;;0.90;35.20;;;;;;5252750;28;20206;-49
2022/03/12 00:42:09;;;;;;;18.57;8.70;;;0.90;35.40;;;;;;5240526;28;20439;-49
2022/03/12 00:44:40;;;;;;;18.37;8.20;;;0.80;35.50;;;;;;5253139;28;20200;-47
2022/03/12 00:47:10;;;;;;;27.47;9.13;;;0.80;35.80;;;;;;5259664;28;20254;-49
2022/03/12 00:49:41;;;;;;;18.73;8.53;;;0.70;35.80;;;;;;5255301;28;20452;-47
2022/03/12 00:52:11;;;;;;;21.57;8.97;;;0.70;36.10;;;;;;5241441;28;20276;-49
2022/03/12 00:54:42;;;;;;;15.77;7.93;;;0.70;36.20;;;;;;5258746;28;20258;-50
2022/03/12 00:57:13;;;;;;;14.87;8.23;;;0.60;36.30;;;;;;5243019;28;20193;-48
2022/03/12 00:59:44;;;;;;;13.87;8.13;;;0.60;36.60;;;;;;5259376;28;20455;-47
2022/03/12 01:02:16;;;;;;;16.37;7.97;;;0.50;36.70;;;;;;5253574;28;20171;-50
2022/03/12 01:04:46;;;;;;;18.13;7.00;;;0.50;37.00;;;;;;5252538;28;20458;-49
2022/03/12 01:07:17;;;;;;;17.40;7.33;;;0.50;37.10;;;;;;5254505;28;20975;-49
2022/03/12 01:09:48;;;;;;;13.80;8.27;;;0.30;37.10;;;;;;5254052;28;20246;-49
2022/03/12 01:12:19;;;;;;;19.30;9.50;;;0.30;37.40;;;;;;5263323;28;20250;-49
2022/03/12 01:14:50;;;;;;;29.37;8.57;;;0.30;37.50;;;;;;5245169;28;20427;-48
2022/03/12 01:17:21;;;;;;;17.30;9.13;;;0.20;37.60;;;;;;5263333;28;20997;-48
2022/03/12 01:19:51;;;;;;;20.03;7.67;;;0.30;37.80;;;;;;5236805;28;20284;-48
2022/03/12 01:22:22;;;;;;;12.80;7.83;;;0.20;38.00;;;;;;5242894;28;20550;-47
2022/03/12 01:24:52;;;;;;;21.60;8.50;;;0.10;38.10;;;;;;5258889;28;20182;-46
2022/03/12 01:27:23;;;;;;;16.37;8.60;;;0.10;38.20;;;;;;5263544;28;20190;-46
2022/03/12 01:29:53;;;;;;;16.57;8.00;;;0.10;38.30;;;;;;5240404;28;20779;-46
2022/03/12 01:32:24;;;;;;;11.77;8.10;;;0.00;38.60;;;;;;5243226;28;20197;-47
2022/03/12 01:34:54;;;;;;;21.50;10.27;;;0.00;38.80;;;;;;5252521;28;20183;-48
2022/03/12 01:37:25;;;;;;;15.93;8.43;;;-0.10;39.00;;;;;;5240534;28;20182;-49
2022/03/12 01:39:56;;;;;;;16.63;9.70;;;-0.10;39.10;;;;;;5237080;28;20273;-49
2022/03/12 01:42:27;;;;;;;18.33;8.20;;;-0.10;39.10;;;;;;5243286;28;20908;-49
2022/03/12 01:44:57;;;;;;;19.60;8.53;;;-0.20;39.10;;;;;;5259688;28;20187;-48
2022/03/12 01:47:28;;;;;;;41.83;9.00;;;-0.20;39.10;;;;;;5260564;28;20201;-51
2022/03/12 01:49:59;;;;;;;14.47;7.13;;;-0.10;39.00;;;;;;5241216;28;20403;-47
2022/03/12 01:52:30;;;;;;;14.97;8.07;;;-0.10;39.00;;;;;;5260400;28;20513;-47
2022/03/12 01:55:01;;;;;;;11.10;7.37;;;-0.20;39.10;;;;;;5259446;28;20182;-47
2022/03/12 01:57:32;;;;;;;12.43;7.13;;;-0.20;39.10;;;;;;5242713;28;20460;-49
2022/03/12 02:00:04;;;;;;;17.50;8.00;;;-0.20;39.10;;;;;;5255475;28;20979;-47
2022/03/12 02:02:35;;;;;;;24.93;7.50;;;-0.20;39.80;;;;;;5241892;28;20469;-48
2022/03/12 02:05:06;;;;;;;20.70;7.10;;;-0.30;39.90;;;;;;5247543;28;20497;-48
2022/03/12 02:07:37;;;;;;;17.63;8.17;;;-0.20;39.40;;;;;;5257993;28;20433;-50
2022/03/12 02:10:08;;;;;;;11.90;7.53;;;-0.30;39.40;;;;;;5260306;28;20832;-50
2022/03/12 02:12:39;;;;;;;23.73;8.60;;;-0.30;39.50;;;;;;5261541;28;20183;-46
2022/03/12 02:15:09;;;;;;;13.13;7.87;;;-0.30;39.40;;;;;;5257863;28;20507;-48
2022/03/12 02:17:40;;;;;;;19.20;8.20;;;-0.30;39.40;;;;;;5246812;28;20182;-49
2022/03/12 02:20:10;;;;;;;20.13;9.03;;;-0.30;39.30;;;;;;5243960;28;20201;-47
2022/03/12 02:22:41;;;;;;;17.23;8.73;;;-0.30;39.30;;;;;;5262722;28;20179;-46
2022/03/12 02:25:15;;;;;;;21.70;8.07;;;-0.20;39.40;;;;;;5236327;28;20182;-48
2022/03/12 02:27:46;;;;;;;16.57;8.17;;;-0.30;39.30;;;;;;5239356;28;20495;-48
2022/03/12 02:30:19;;;;;;;19.80;8.20;;;-0.30;39.20;;;;;;5256200;28;20510;-48
2022/03/12 02:32:58;;;;;;;18.03;9.10;;;-0.30;39.30;;;;;;5262865;28;20417;-48
2022/03/12 02:35:36;;;;;;;18.90;9.00;;;-0.30;39.40;;;;;;5260757;28;20446;-48
2022/03/12 02:38:09;;;;;;;19.50;9.17;;;-0.30;39.50;;;;;;5243385;28;20457;-50
2022/03/12 02:40:41;;;;;;;13.40;8.00;;;-0.30;39.40;;;;;;5238610;28;20428;-48
2022/03/12 02:43:13;;;;;;;35.03;10.73;;;-0.40;39.20;;;;;;5245352;28;20954;-48
2022/03/12 02:45:46;;;;;;;16.90;8.83;;;-0.40;39.30;;;;;;5234243;28;20460;-47
2022/03/12 02:48:17;;;;;;;25.27;11.13;;;-0.40;39.40;;;;;;5239204;28;20473;-48
2022/03/12 02:50:48;;;;;;;25.27;9.03;;;-0.40;39.40;;;;;;5255802;28;20468;-49
2022/03/12 02:53:18;;;;;;;13.70;8.03;;;-0.40;39.50;;;;;;5241949;28;20439;-49
2022/03/12 02:55:51;;;;;;;22.77;9.40;;;-0.40;39.50;;;;;;5242698;28;20179;-47
2022/03/12 02:58:21;;;;;;;24.73;9.07;;;-0.40;39.50;;;;;;5245737;28;20220;-48
2022/03/12 03:00:53;;;;;;;17.60;9.20;;;-0.40;40.10;;;;;;5233154;28;20496;-47
2022/03/12 03:03:23;;;;;;;22.30;7.77;;;-0.50;39.50;;;;;;5238674;28;20630;-50
2022/03/12 03:05:55;;;;;;;21.90;8.17;;;-0.50;39.60;;;;;;5241875;28;20451;-47
2022/03/12 03:08:26;;;;;;;16.20;8.10;;;-0.50;39.70;;;;;;5234946;28;20228;-48
2022/03/12 03:10:59;;;;;;;19.33;8.30;;;-0.50;39.60;;;;;;5241044;28;20420;-48
2022/03/12 03:13:34;;;;;;;16.03;8.57;;;-0.50;39.60;;;;;;5239762;28;20421;-49
2022/03/12 03:16:21;;;;;;;15.80;8.17;;;-0.50;40.10;;;;;;5237299;28;20491;-47
2022/03/12 03:18:53;;;;;;;20.10;7.80;;;-0.50;39.60;;;;;;5245278;28;20955;-46
2022/03/12 03:21:25;;;;;;;18.07;8.30;;;-0.50;39.60;;;;;;5239185;28;20463;-49
2022/03/12 03:23:55;;;;;;;23.60;9.47;;;-0.50;39.60;;;;;;5238448;28;20432;-47
2022/03/12 03:26:46;;;;;;;17.80;8.50;;;-0.50;39.60;;;;;;5236660;28;20457;-47
2022/03/12 03:29:19;;;;;;;19.90;8.20;;;-0.50;39.50;;;;;;5222903;28;20231;-48
2022/03/12 03:31:50;;;;;;;22.50;8.20;;;-0.50;39.60;;;;;;5234060;28;20449;-48
2022/03/12 03:34:22;;;;;;;18.27;8.10;;;-0.60;39.60;;;;;;5242083;28;20436;-47
2022/03/12 03:36:53;;;;;;;15.50;8.30;;;-0.60;39.60;;;;;;5235332;28;20429;-46
2022/03/12 03:39:23;;;;;;;18.53;8.00;;;-0.60;39.70;;;;;;5249465;28;21014;-49
2022/03/12 03:41:54;;;;;;;23.17;8.47;;;-0.60;39.80;;;;;;5242354;28;20210;-48
2022/03/12 03:44:29;;;;;;;26.37;10.43;;;-0.70;39.90;;;;;;5239023;28;20269;-46
2022/03/12 03:46:59;;;;;;;24.80;9.00;;;-0.70;39.90;;;;;;5240376;28;20529;-47
2022/03/12 03:49:30;;;;;;;26.87;8.90;;;-0.70;39.90;;;;;;5238481;28;20499;-50
2022/03/12 03:52:00;;;;;;;20.90;8.17;;;-0.70;39.90;;;;;;5240244;28;20174;-47
2022/03/12 03:54:31;;;;;;;21.13;8.33;;;-0.80;40.00;;;;;;5238656;28;20186;-48
2022/03/12 03:57:02;;;;;;;22.83;8.63;;;-0.70;40.10;;;;;;5246269;28;20179;-50
2022/03/12 03:59:32;;;;;;;21.57;9.43;;;-0.80;40.20;;;;;;5236138;28;20244;-48
2022/03/12 04:02:03;;;;;;;20.50;8.43;;;-0.90;40.30;;;;;;5237140;28;20179;-46
2022/03/12 04:04:36;;;;;;;18.90;9.03;;;-0.80;40.30;;;;;;5238899;28;20186;-50
2022/03/12 04:07:07;;;;;;;20.43;8.00;;;-0.90;40.30;;;;;;5239672;28;20257;-49
2022/03/12 04:09:38;;;;;;;25.90;9.97;;;-0.90;40.40;;;;;;5231748;28;20460;-48
2022/03/12 04:12:08;;;;;;;19.30;9.47;;;-0.90;40.40;;;;;;5222167;28;20178;-48
2022/03/12 04:14:39;;;;;;;22.93;9.07;;;-0.90;40.50;;;;;;5234243;28;20270;-47
2022/03/12 04:17:12;;;;;;;18.47;8.60;;;-1.00;40.50;;;;;;5241735;28;20518;-49
2022/03/12 04:19:42;;;;;;;22.10;9.80;;;-1.00;40.60;;;;;;5239783;28;20207;-49
2022/03/12 04:22:14;;;;;;;24.80;10.10;;;-1.00;40.70;;;;;;5241680;28;20440;-48
2022/03/12 04:24:45;;;;;;;24.00;8.70;;;-1.00;40.70;;;;;;5237161;28;20255;-48
2022/03/12 04:27:15;;;;;;;23.70;9.57;;;-1.00;40.60;;;;;;5241854;28;20470;-49
2022/03/12 04:29:46;;;;;;;24.40;10.07;;;-1.00;40.50;;;;;;5247358;28;20224;-47
2022/03/12 04:32:16;;;;;;;22.83;9.63;;;-1.00;40.70;;;;;;5243556;28;20190;-49
2022/03/12 04:34:47;;;;;;;16.50;9.37;;;-1.00;40.70;;;;;;5240425;28;20652;-49
2022/03/12 04:37:19;;;;;;;18.57;9.60;;;-1.00;40.60;;;;;;5243441;28;20180;-48
2022/03/12 04:39:50;;;;;;;24.73;10.30;;;-1.00;40.70;;;;;;5241360;28;20568;-47
2022/03/12 04:42:21;;;;;;;21.13;8.77;;;-1.00;40.80;;;;;;5243183;28;20425;-47
2022/03/12 04:44:52;;;;;;;17.80;9.37;;;-1.00;40.80;;;;;;5240850;28;20179;-49
2022/03/12 04:47:24;;;;;;;20.80;9.80;;;-1.00;40.80;;;;;;5241452;28;20770;-47
2022/03/12 04:49:54;;;;;;;23.03;9.30;;;-0.90;40.80;;;;;;5246776;28;20303;-49
2022/03/12 04:52:25;;;;;;;16.63;7.30;;;-1.00;40.70;;;;;;5242319;28;20519;-48
2022/03/12 04:54:56;;;;;;;18.97;8.93;;;-1.00;40.80;;;;;;5242364;28;20189;-48
2022/03/12 04:57:27;;;;;;;26.57;8.87;;;-1.00;40.70;;;;;;5240061;28;20182;-49
2022/03/12 04:59:57;;;;;;;19.97;8.10;;;-0.90;40.80;;;;;;5231178;28;20841;-49
2022/03/12 05:02:28;;;;;;;19.77;9.43;;;-0.90;40.80;;;;;;5241928;28;20182;-46
2022/03/12 05:04:59;;;;;;;26.67;10.33;;;-0.90;40.70;;;;;;5241586;28;20178;-49
2022/03/12 05:07:29;;;;;;;20.83;8.97;;;-0.90;40.60;;;;;;5239633;28;20202;-47
2022/03/12 05:10:00;;;;;;;15.77;8.80;;;-0.90;40.50;;;;;;5239581;28;20624;-47
2022/03/12 05:12:31;;;;;;;19.23;9.03;;;-0.90;40.60;;;;;;5245323;28;20261;-48
2022/03/12 05:15:02;;;;;;;20.83;9.00;;;-0.90;40.60;;;;;;5236010;28;20437;-47
2022/03/12 05:17:38;;;;;;;19.70;8.97;;;-1.00;40.40;;;;;;5235623;28;20197;-48
2022/03/12 05:20:10;;;;;;;19.57;10.43;;;-0.90;40.80;;;;;;5235991;28;20517;-48
2022/03/12 05:22:41;;;;;;;20.70;9.67;;;-1.00;40.80;;;;;;5239768;28;20432;-47
2022/03/12 05:25:12;;;;;;;18.80;9.70;;;-1.00;40.80;;;;;;5233926;28;20447;-47
2022/03/12 05:27:42;;;;;;;22.37;10.90;;;-1.00;40.90;;;;;;5236786;28;20226;-48
2022/03/12 05:30:13;;;;;;;23.27;10.33;;;-1.00;41.20;;;;;;5236240;28;20548;-48
2022/03/12 05:32:44;;;;;;;30.23;11.60;;;-1.00;40.70;;;;;;5231815;28;20189;-47
2022/03/12 05:35:19;;;;;;;21.17;10.57;;;-1.00;40.80;;;;;;5240311;28;20188;-48
2022/03/12 05:37:51;;;;;;;19.63;9.70;;;-1.00;40.90;;;;;;5237460;28;20436;-47
2022/03/12 05:40:25;;;;;;;25.10;9.73;;;-1.00;40.90;;;;;;5195990;22;20498;-45
2022/03/12 05:42:55;;;;;;;23.27;9.70;;;-1.00;40.90;;;;;;5164240;28;20434;-46
2022/03/12 05:45:26;;;;;;;23.50;9.10;;;-1.00;41.00;;;;;;5163001;28;20466;-46
2022/03/12 05:47:58;;;;;;;20.40;10.00;;;-1.00;40.90;;;;;;5161957;28;20643;-46
2022/03/12 05:50:29;;;;;;;21.20;8.60;;;-1.00;40.90;;;;;;5164005;28;20707;-46
2022/03/12 05:52:59;;;;;;;19.43;9.33;;;-0.90;41.00;;;;;;5166315;28;20436;-45
2022/03/12 05:55:29;;;;;;;20.23;9.33;;;-0.90;40.90;;;;;;5165355;28;20191;-45
2022/03/12 05:58:01;;;;;;;20.10;9.40;;;-0.90;41.00;;;;;;5163346;28;20190;-46
2022/03/12 06:00:33;;;;;;;16.50;9.23;;;-0.80;41.00;;;;;;5169247;28;20196;-45
2022/03/12 06:03:04;;;;;;;25.97;9.43;;;-0.30;40.60;;;;;;5152707;28;20468;-47
2022/03/12 06:05:40;;;;;;;17.07;8.73;;;0.10;39.70;;;;;;5163635;28;20558;-46
2022/03/12 06:08:14;;;;;;;17.13;9.80;;;0.30;39.00;;;;;;5167647;28;20188;-46
2022/03/12 06:10:51;;;;;;;23.73;10.77;;;0.40;38.70;;;;;;5162348;28;20484;-46
2022/03/12 06:13:23;;;;;;;16.60;9.20;;;0.50;38.50;;;;;;5169163;28;20519;-46
2022/03/12 06:15:58;;;;;;;22.20;10.07;;;0.50;38.20;;;;;;5162735;28;20499;-46
2022/03/12 06:18:37;;;;;;;23.33;9.10;;;0.40;38.30;;;;;;5162196;28;20436;-47
2022/03/12 06:21:07;;;;;;;20.83;10.30;;;0.30;38.50;;;;;;5164456;28;20497;-47
2022/03/12 06:23:38;;;;;;;22.87;9.90;;;0.20;38.80;;;;;;5164739;28;20437;-46
2022/03/12 06:26:12;;;;;;;31.03;10.33;;;0.20;38.90;;;;;;5167598;28;20236;-45
2022/03/12 06:28:43;;;;;;;30.93;9.47;;;0.50;38.80;;;;;;5147509;28;20207;-46
2022/03/12 06:31:14;;;;;;;26.57;9.70;;;1.10;38.10;;;;;;5169160;28;20465;-47
2022/03/12 06:33:45;;;;;;;15.73;9.23;;;1.70;37.00;;;;;;5164984;28;20432;-47
2022/03/12 06:36:16;;;;;;;19.63;7.90;;;2.60;35.70;;;;;;5161904;28;20454;-46
2022/03/12 06:38:47;;;;;;;21.87;8.90;;;3.90;33.90;;;;;;5169162;28;20526;-45
2022/03/12 06:41:20;;;;;;;19.10;9.17;;;4.90;31.60;;;;;;5183608;28;20180;-47
2022/03/12 06:43:53;;;;;;;20.13;10.10;;;5.80;30.00;;;;;;5187840;28;20288;-47
2022/03/12 06:46:25;;;;;;;20.60;10.07;;;6.50;28.90;;;;;;5178095;28;20463;-47
2022/03/12 06:48:56;;;;;;;27.10;10.50;;;6.70;28.20;;;;;;5183140;28;20465;-46
2022/03/12 06:51:27;;;;;;;19.73;9.77;;;6.80;27.90;;;;;;5183802;28;20450;-46
2022/03/12 06:53:58;;;;;;;17.60;9.60;;;6.90;27.90;;;;;;5181958;28;20602;-48
2022/03/12 06:56:28;;;;;;;19.10;9.40;;;7.30;27.40;;;;;;5183922;28;20256;-48
2022/03/12 06:58:59;;;;;;;26.53;10.07;;;7.50;27.00;;;;;;5181583;28;20508;-47
2022/03/12 07:01:29;;;;;;;16.57;9.63;;;7.50;26.70;;;;;;5178349;28;20204;-47
2022/03/12 07:04:00;;;;;;;21.07;10.00;;;7.50;26.80;;;;;;5185346;28;20180;-46
2022/03/12 07:06:31;;;;;;;17.60;9.80;;;7.90;26.40;;;;;;5180968;28;20211;-47
2022/03/12 07:09:01;;;;;;;19.53;10.17;;;8.10;26.20;;;;;;5182891;28;20208;-47
2022/03/12 07:11:32;;;;;;;21.60;11.13;;;7.90;26.10;;;;;;5183165;28;20228;-47
2022/03/12 07:14:04;;;;;;;23.90;9.70;;;8.10;26.30;;;;;;5183347;28;20203;-46
2022/03/12 07:16:35;;;;;;;25.23;10.93;;;8.30;25.70;;;;;;5182017;28;20446;-46
2022/03/12 07:19:06;;;;;;;21.87;11.67;;;8.70;25.60;;;;;;5191684;28;20530;-48
2022/03/12 07:21:37;;;;;;;20.07;10.33;;;8.80;25.10;;;;;;5186512;28;20450;-47
2022/03/12 07:24:07;;;;;;;20.03;9.50;;;8.70;25.00;;;;;;5182849;28;20180;-48
2022/03/12 07:26:39;;;;;;;17.00;9.57;;;8.80;25.10;;;;;;5186161;28;20467;-47
2022/03/12 07:29:09;;;;;;;21.20;9.63;;;9.30;24.90;;;;;;5184942;28;20618;-47
2022/03/12 07:31:40;;;;;;;22.60;9.53;;;9.50;24.40;;;;;;5186197;28;20520;-48
2022/03/12 07:34:11;;;;;;;16.80;9.07;;;9.70;24.30;;;;;;5181348;28;20192;-48
2022/03/12 07:36:41;;;;;;;16.23;9.77;;;10.00;23.40;;;;;;5181229;28;20196;-47
2022/03/12 07:39:12;;;;;;;27.10;10.47;;;10.30;22.80;;;;;;5177857;28;20223;-48
2022/03/12 07:41:42;;;;;;;17.77;9.30;;;10.00;22.80;;;;;;5180340;28;20565;-49
2022/03/12 07:44:13;;;;;;;19.10;9.30;;;10.30;23.10;;;;;;5175402;28;20688;-48
2022/03/12 07:46:44;;;;;;;15.03;9.30;;;10.60;22.70;;;;;;5182257;28;20247;-47
2022/03/12 07:49:15;;;;;;;16.83;9.50;;;11.00;22.50;;;;;;5186942;28;20276;-47
2022/03/12 07:51:46;;;;;;;15.97;8.80;;;10.80;22.10;;;;;;5179588;28;20852;-47
2022/03/12 07:54:16;;;;;;;20.00;10.13;;;10.70;22.20;;;;;;5198766;28;20177;-47
2022/03/12 07:56:47;;;;;;;19.20;10.00;;;10.50;22.20;;;;;;5180104;28;20795;-50
2022/03/12 07:59:18;;;;;;;15.57;9.50;;;10.30;22.40;;;;;;5180448;28;20946;-49
2022/03/12 08:01:49;;;;;;;18.27;8.93;;;9.40;23.60;;;;;;5181225;28;20184;-49
2022/03/12 08:04:19;;;;;;;19.63;9.63;;;8.00;24.40;;;;;;5187548;28;20526;-48
2022/03/12 08:06:50;;;;;;;13.40;9.60;;;6.30;25.90;;;;;;5179275;28;20212;-47
2022/03/12 08:09:21;;;;;;;16.37;8.53;;;5.00;27.50;;;;;;5180677;28;20610;-48
2022/03/12 08:11:51;;;;;;;15.00;7.97;;;4.40;28.80;;;;;;5180612;28;20440;-47
2022/03/12 08:14:22;;;;;;;17.73;8.57;;;4.30;29.40;;;;;;5178095;28;20185;-49
2022/03/12 08:16:53;;;;;;;20.07;8.67;;;4.20;29.50;;;;;;5163616;28;20644;-48
2022/03/12 08:19:24;;;;;;;24.67;8.10;;;4.20;29.60;;;;;;5174181;28;20451;-47
2022/03/12 08:21:58;;;;;;;23.73;9.83;;;4.10;29.50;;;;;;5176376;28;20484;-48
2022/03/12 08:24:28;;;;;;;15.73;7.73;;;4.20;29.70;;;;;;5180069;28;20208;-50
2022/03/12 08:26:59;;;;;;;17.80;8.50;;;4.50;29.30;;;;;;5185080;28;20547;-49
2022/03/12 08:29:30;;;;;;;15.27;8.00;;;4.70;29.10;;;;;;5180684;28;20212;-50
2022/03/12 08:32:00;;;;;;;13.13;6.77;;;4.90;28.60;;;;;;5172340;28;20203;-48
2022/03/12 08:34:31;;;;;;;15.37;7.40;;;5.20;28.10;;;;;;5175769;28;20192;-48
2022/03/12 08:37:03;;;;;;;20.70;8.53;;;5.10;27.80;;;;;;5177210;28;20184;-47
2022/03/12 08:39:35;;;;;;;12.33;7.10;;;4.80;27.80;;;;;;5177090;28;20323;-47
2022/03/12 08:42:06;;;;;;;16.33;7.50;;;4.60;28.10;;;;;;5176340;28;20531;-50
2022/03/12 08:44:37;;;;;;;17.27;7.30;;;4.60;27.40;;;;;;5185201;28;20589;-47
2022/03/12 08:47:08;;;;;;;13.27;7.27;;;4.50;27.30;;;;;;5184588;28;20477;-50
2022/03/12 08:49:38;;;;;;;9.77;6.80;;;4.50;27.10;;;;;;5176811;28;20447;-50
2022/03/12 08:52:09;;;;;;;15.40;7.97;;;4.60;27.10;;;;;;5178142;28;20439;-50
2022/03/12 08:54:39;;;;;;;14.73;6.40;;;4.60;27.20;;;;;;5182355;28;20176;-47
2022/03/12 08:57:10;;;;;;;11.80;7.20;;;4.80;27.20;;;;;;5175841;28;20184;-51
2022/03/12 08:59:41;;;;;;;15.80;7.23;;;4.80;26.80;;;;;;5175112;28;20249;-49
2022/03/12 09:02:11;;;;;;;11.53;6.80;;;4.80;26.80;;;;;;5180609;28;20664;-49
2022/03/12 09:04:42;;;;;;;16.37;6.93;;;4.90;26.70;;;;;;5176761;28;20720;-50
2022/03/12 09:07:13;;;;;;;11.97;7.40;;;4.90;26.70;;;;;;5163093;28;20208;-50
2022/03/12 09:09:43;;;;;;;17.27;6.10;;;5.00;26.50;;;;;;5179977;28;20451;-48
2022/03/12 09:12:14;;;;;;;14.40;6.63;;;5.10;26.10;;;;;;5176543;28;20180;-48
2022/03/12 09:14:44;;;;;;;17.37;7.40;;;5.10;26.20;;;;;;5177944;28;20182;-46
2022/03/12 09:17:15;;;;;;;11.97;6.70;;;5.10;26.20;;;;;;5178435;28;20180;-48
2022/03/12 09:19:45;;;;;;;13.10;7.47;;;5.10;25.90;;;;;;5182835;28;20208;-48
2022/03/12 09:22:16;;;;;;;12.77;7.70;;;5.30;26.00;;;;;;5184773;28;20723;-48
2022/03/12 09:24:46;;;;;;;9.17;6.33;;;5.30;25.80;;;;;;5180283;28;20184;-49
2022/03/12 09:27:17;;;;;;;15.30;7.43;;;5.40;26.10;;;;;;5191882;28;20204;-50
2022/03/12 09:29:48;;;;;;;12.30;6.70;;;5.50;25.60;;;;;;5181957;28;20200;-47
2022/03/12 09:32:20;;;;;;;11.50;7.13;;;5.60;25.60;;;;;;5183940;28;20188;-48
2022/03/12 09:34:51;;;;;;;12.77;6.93;;;5.70;25.40;;;;;;5179758;28;20187;-49
2022/03/12 09:37:21;;;;;;;16.03;7.17;;;5.70;25.20;;;;;;5182906;28;20431;-49
2022/03/12 09:39:52;;;;;;;18.27;8.23;;;5.80;25.30;;;;;;5181924;28;20532;-47
2022/03/12 09:42:23;;;;;;;13.67;6.90;;;5.90;25.00;;;;;;5181150;28;20184;-48
2022/03/12 09:44:54;;;;;;;9.93;6.07;;;6.00;25.20;;;;;;5181232;28;20276;-48
2022/03/12 09:47:24;;;;;;;10.93;6.40;;;6.10;25.00;;;;;;5183736;28;20556;-49
2022/03/12 09:49:55;;;;;;;19.17;6.27;;;6.30;24.50;;;;;;5182406;28;20205;-51
2022/03/12 09:52:26;;;;;;;17.80;7.07;;;6.40;24.00;;;;;;5187304;28;20276;-49
2022/03/12 09:54:57;;;;;;;15.10;7.23;;;6.50;23.70;;;;;;5190219;28;20191;-48
2022/03/12 09:57:28;;;;;;;12.30;7.07;;;6.50;24.10;;;;;;5176250;28;20442;-50
2022/03/12 10:00:00;;;;;;;8.00;6.00;;;6.60;23.80;;;;;;5175930;28;20980;-50
2022/03/12 10:02:30;;;;;;;14.13;6.60;;;6.50;23.70;;;;;;5178786;28;20444;-48
2022/03/12 10:05:01;;;;;;;7.90;5.60;;;6.60;23.90;;;;;;5174931;28;20435;-50
2022/03/12 10:07:32;;;;;;;16.33;7.60;;;6.70;23.00;;;;;;5176420;28;20207;-50
2022/03/12 10:10:03;;;;;;;17.10;6.77;;;6.90;23.20;;;;;;5179007;28;20674;-49
2022/03/12 10:12:34;;;;;;;10.63;6.00;;;7.00;23.10;;;;;;5180665;28;20187;-50
2022/03/12 10:15:04;;;;;;;12.37;6.20;;;7.10;22.60;;;;;;5188656;28;20544;-48
2022/03/12 10:17:35;;;;;;;6.87;5.40;;;7.10;22.40;;;;;;5178025;28;20199;-48
2022/03/12 10:20:09;;;;;;;8.53;4.77;;;7.00;22.30;;;;;;5177270;28;20198;-49
2022/03/12 10:22:40;;;;;;;12.83;6.07;;;7.00;22.30;;;;;;5174061;28;20531;-49
2022/03/12 10:25:12;;;;;;;10.40;5.60;;;7.10;22.60;;;;;;5180547;28;20446;-49
2022/03/12 10:27:43;;;;;;;24.10;6.23;;;7.20;22.40;;;;;;5181686;28;20502;-49
2022/03/12 10:30:13;;;;;;;18.37;6.40;;;7.30;22.30;;;;;;5179148;28;20611;-48
2022/03/12 10:32:49;;;;;;;15.27;5.23;;;7.50;21.90;;;;;;5179350;28;20705;-49
2022/03/12 10:35:21;;;;;;;9.63;5.30;;;7.70;22.00;;;;;;5178124;28;20222;-50
2022/03/12 10:37:53;;;;;;;10.87;5.53;;;7.60;21.60;;;;;;5182284;28;20439;-49
2022/03/12 10:40:25;;;;;;;8.87;5.53;;;7.50;22.10;;;;;;5177575;28;20470;-49
2022/03/12 10:43:07;;;;;;;11.30;5.40;;;7.60;21.80;;;;;;5176902;28;21010;-49
2022/03/12 10:45:41;;;;;;;10.27;5.87;;;7.50;21.40;;;;;;5175777;28;20490;-50
2022/03/12 10:48:12;;;;;;;14.60;5.97;;;7.60;21.80;;;;;;5176285;28;20919;-49
2022/03/12 10:50:45;;;;;;;9.80;5.90;;;7.60;21.60;;;;;;5174942;28;20488;-50
2022/03/12 10:53:17;;;;;;;11.37;5.13;;;7.70;21.80;;;;;;5183985;28;20443;-49
2022/03/12 10:55:50;;;;;;;5.50;5.00;;;7.80;21.70;;;;;;5176584;28;20434;-50
2022/03/12 10:58:24;;;;;;;8.03;5.87;;;7.80;21.80;;;;;;5177502;28;20893;-50
2022/03/12 11:00:59;;;;;;;9.47;5.50;;;7.80;22.00;;;;;;5176709;28;20449;-49
2022/03/12 11:03:35;;;;;;;7.23;5.23;;;7.90;21.70;;;;;;5175946;28;20972;-50
2022/03/12 11:06:06;;;;;;;6.40;5.00;;;7.90;21.80;;;;;;5173832;28;20588;-49
2022/03/12 11:08:38;;;;;;;9.23;5.93;;;8.00;21.50;;;;;;5179442;28;20470;-50
2022/03/12 11:11:12;;;;;;;6.47;5.40;;;8.00;21.50;;;;;;5176242;28;20561;-48
2022/03/12 11:13:50;;;;;;;5.57;4.97;;;8.10;21.60;;;;;;5180813;28;20597;-49
2022/03/12 11:16:24;;;;;;;6.70;5.30;;;8.10;21.50;;;;;;5177201;28;20968;-50
2022/03/12 11:19:01;;;;;;;12.27;7.47;;;8.30;21.80;;;;;;5179063;28;20570;-50
2022/03/12 11:21:41;;;;;;;5.90;4.97;;;8.50;21.80;;;;;;5181813;28;20442;-50
2022/03/12 11:24:22;;;;;;;9.93;4.60;;;8.50;21.30;;;;;;5175802;28;20448;-50
2022/03/12 11:27:03;;;;;;;8.47;4.67;;;8.50;21.20;;;;;;5176858;28;20545;-50
2022/03/12 11:29:34;;;;;;;6.43;5.00;;;8.50;21.10;;;;;;5174842;28;20870;-51
2022/03/12 11:32:09;;;;;;;9.23;5.53;;;8.60;21.20;;;;;;5175478;28;20493;-50
2022/03/12 11:34:41;;;;;;;9.20;4.73;;;8.70;21.10;;;;;;5179308;28;20205;-50
2022/03/12 11:37:18;;;;;;;8.60;5.17;;;8.80;20.70;;;;;;5176076;28;20493;-50
2022/03/12 11:39:51;;;;;;;9.50;4.80;;;8.80;20.80;;;;;;5217668;23;20990;-51
2022/03/12 11:42:23;;;;;;;9.10;5.23;;;8.90;21.00;;;;;;5242619;28;20501;-51
2022/03/12 11:44:56;;;;;;;6.33;4.87;;;8.90;20.70;;;;;;5241787;28;20425;-53
2022/03/12 11:47:30;;;;;;;7.93;4.37;;;9.00;20.10;;;;;;5244527;28;20456;-49
2022/03/12 11:50:03;;;;;;;8.03;4.90;;;9.00;20.20;;;;;;5250050;28;20794;-48
2022/03/12 11:52:35;;;;;;;4.77;4.30;;;9.10;20.30;;;;;;5237795;28;20424;-51
2022/03/12 11:55:15;;;;;;;15.27;4.87;;;9.10;20.20;;;;;;5260666;28;20451;-50
2022/03/12 11:57:47;;;;;;;4.47;3.93;;;9.20;20.20;;;;;;5264932;28;20445;-49
2022/03/12 12:00:24;;;;;;;7.00;4.20;;;9.30;20.10;;;;;;5271881;28;20475;-51
2022/03/12 12:02:56;;;;;;;7.70;4.93;;;9.40;19.70;;;;;;5260040;28;20743;-51
2022/03/12 12:05:30;;;;;;;5.27;4.77;;;9.20;19.40;;;;;;5258485;28;20435;-50
2022/03/12 12:08:01;;;;;;;6.50;4.10;;;9.30;19.70;;;;;;5263593;28;20998;-51
2022/03/12 12:10:31;;;;;;;12.20;5.03;;;9.40;20.00;;;;;;5260611;28;20550;-50
2022/03/12 12:13:02;;;;;;;7.77;4.63;;;9.50;20.10;;;;;;5260443;28;20581;-51
2022/03/12 12:15:36;;;;;;;10.97;4.77;;;9.60;19.80;;;;;;5259154;28;20179;-50
2022/03/12 12:18:08;;;;;;;6.70;4.93;;;9.70;19.60;;;;;;5253309;28;20189;-48
2022/03/12 12:20:40;;;;;;;14.67;4.50;;;9.70;19.70;;;;;;5261954;28;20479;-49
2022/03/12 12:23:17;;;;;;;4.30;3.90;;;9.80;19.50;;;;;;5243133;28;20801;-51
2022/03/12 12:25:49;;;;;;;7.80;4.30;;;9.80;19.20;;;;;;5266792;28;20455;-51
2022/03/12 12:28:21;;;;;;;6.40;4.50;;;9.70;19.20;;;;;;5262403;28;20759;-51
2022/03/12 12:30:54;;;;;;;4.83;4.37;;;9.80;19.40;;;;;;5254581;28;20459;-49
2022/03/12 12:33:27;;;;;;;7.00;4.87;;;9.80;19.50;;;;;;5262568;28;20423;-49
2022/03/12 12:36:13;;;;;;;6.90;5.00;;;9.80;19.60;;;;;;5263664;28;20527;-49
2022/03/12 12:39:04;;;;;;;7.07;4.90;;;9.90;19.90;;;;;;5260229;28;20958;-49
2022/03/12 12:41:56;;;;;;;12.83;5.00;;;9.90;19.80;;;;;;5263067;28;20505;-48
2022/03/12 12:44:41;;;;;;;7.20;4.20;;;9.90;20.10;;;;;;5261878;28;20532;-52
2022/03/12 12:47:20;;;;;;;5.20;4.17;;;10.00;19.50;;;;;;5253376;28;20949;-48
2022/03/12 12:49:53;;;;;;;6.13;4.67;;;10.00;19.30;;;;;;5262437;28;20458;-49
2022/03/12 12:52:26;;;;;;;5.00;4.23;;;9.90;20.10;;;;;;5266437;28;20424;-49
2022/03/12 12:54:59;;;;;;;6.77;4.50;;;9.90;20.60;;;;;;5254701;28;20783;-48
2022/03/12 12:57:44;;;;;;;4.87;4.37;;;9.80;20.20;;;;;;5264428;28;20423;-49
2022/03/12 13:00:21;;;;;;;5.70;4.53;;;9.80;20.40;;;;;;5264461;28;20451;-50
2022/03/12 13:02:52;;;;;;;7.87;5.20;;;9.80;20.30;;;;;;5267689;28;20477;-50
2022/03/12 13:05:52;;;;;;;7.00;4.40;;;9.90;20.20;;;;;;5275196;27;20494;-50
2022/03/12 13:08:51;;;;;;;6.37;4.80;;;10.00;19.70;;;;;;5263155;28;20436;-50